Time;durP1;ratioP1;P1;durP2;ratioP2;P2;SDS_P1;SDS_P2;PMS_P1;PMS_P2;Temp;Humidity;BMP_temperature;BMP_pressure;BME280_temperature;BME280_humidity;BME280_pressure;Samples;Min_cycle;Max_cycle;Signal;HPM_P1;HPM_P2
2023/07/18 00:01:20;;;;;;;5.97;4.18;;;;;;;;;;5903177;28;20068;-81
2023/07/18 00:04:11;;;;;;;7.43;4.13;;;;;;;;;;5905828;28;20044;-81
2023/07/18 00:07:02;;;;;;;6.97;3.83;;;;;;;;;;5904696;28;20514;-81
2023/07/18 00:09:53;;;;;;;9.43;4.10;;;;;;;;;;5905987;28;20049;-81
2023/07/18 00:12:48;;;;;;;6.18;3.65;;;;;;;;;;5906305;28;20048;-81
2023/07/18 00:15:39;;;;;;;6.15;3.63;;;;;;;;;;5905751;28;20059;-81
2023/07/18 00:18:30;;;;;;;8.98;3.65;;;;;;;;;;5905701;28;20064;-81
2023/07/18 00:21:21;;;;;;;5.30;3.35;;;;;;;;;;5905583;28;20316;-82
2023/07/18 00:24:11;;;;;;;9.02;3.80;;;;;;;;;;5905694;28;20071;-82
2023/07/18 00:27:04;;;;;;;8.02;4.60;;;;;;;;;;5910054;28;20419;-83
2023/07/18 00:29:57;;;;;;;7.38;3.80;;;;;;;;;;5910754;28;20063;-81
2023/07/18 00:32:48;;;;;;;9.60;4.35;;;;;;;;;;5910350;28;20047;-82
2023/07/18 00:35:40;;;;;;;11.07;4.40;;;;;;;;;;5910210;28;20040;-81
2023/07/18 00:38:30;;;;;;;11.40;4.63;;;;;;;;;;5908878;28;20044;-81
2023/07/18 00:41:21;;;;;;;18.83;5.13;;;;;;;;;;5909949;28;20059;-82
2023/07/18 00:44:12;;;;;;;13.55;4.93;;;;;;;;;;5910204;28;20102;-81
2023/07/18 00:47:04;;;;;;;13.80;5.07;;;;;;;;;;5910498;28;20044;-81
2023/07/18 00:49:55;;;;;;;13.40;5.60;;;;;;;;;;5909062;28;20793;-82
2023/07/18 00:52:49;;;;;;;10.20;6.10;;;;;;;;;;5909932;28;20068;-81
2023/07/18 00:55:41;;;;;;;15.43;5.50;;;;;;;;;;5908461;28;20059;-81
2023/07/18 00:58:32;;;;;;;17.60;6.15;;;;;;;;;;5908897;28;20811;-81
2023/07/18 01:01:22;;;;;;;10.73;5.10;;;;;;;;;;5909893;28;20060;-81
2023/07/18 01:04:13;;;;;;;10.02;6.32;;;;;;;;;;5908287;28;20495;-81
2023/07/18 01:07:04;;;;;;;9.05;5.15;;;;;;;;;;5909948;28;20521;-82
2023/07/18 01:10:22;;;;;;;10.23;4.85;;;;;;;;;;5908990;28;20044;-81
2023/07/18 01:13:13;;;;;;;17.40;6.95;;;;;;;;;;5909621;28;20044;-81
2023/07/18 01:16:04;;;;;;;15.30;6.15;;;;;;;;;;5909534;28;20325;-80
2023/07/18 01:18:55;;;;;;;21.10;7.45;;;;;;;;;;5910038;28;20127;-81
2023/07/18 01:21:46;;;;;;;18.75;7.07;;;;;;;;;;5907925;28;20043;-81
2023/07/18 01:24:37;;;;;;;23.13;8.15;;;;;;;;;;5909296;28;20052;-82
2023/07/18 01:27:27;;;;;;;21.50;7.28;;;;;;;;;;5909714;28;20044;-81
2023/07/18 01:30:21;;;;;;;29.17;8.25;;;;;;;;;;5909340;28;20055;-82
2023/07/18 01:33:12;;;;;;;43.05;9.25;;;;;;;;;;5909384;28;20487;-81
2023/07/18 01:36:03;;;;;;;24.95;8.75;;;;;;;;;;5909024;28;20047;-81
2023/07/18 01:38:54;;;;;;;45.53;7.22;;;;;;;;;;5908748;28;20060;-81
2023/07/18 01:41:45;;;;;;;31.33;9.38;;;;;;;;;;5907716;28;20048;-80
2023/07/18 01:44:36;;;;;;;27.25;6.80;;;;;;;;;;5908862;28;20048;-81
2023/07/18 01:47:27;;;;;;;24.10;7.60;;;;;;;;;;5908919;28;20086;-82
2023/07/18 01:50:18;;;;;;;38.05;7.72;;;;;;;;;;5909282;28;20052;-80
2023/07/18 01:53:11;;;;;;;17.70;7.65;;;;;;;;;;5907567;28;20060;-81
2023/07/18 01:56:02;;;;;;;29.50;7.38;;;;;;;;;;5908948;28;20060;-82
2023/07/18 01:58:52;;;;;;;19.23;7.10;;;;;;;;;;5909278;28;20052;-83
2023/07/18 02:01:43;;;;;;;24.20;8.32;;;;;;;;;;5908900;28;20052;-80
2023/07/18 02:04:34;;;;;;;26.05;9.05;;;;;;;;;;5907412;28;20055;-81
2023/07/18 02:07:25;;;;;;;22.13;8.48;;;;;;;;;;5909116;28;20074;-80
2023/07/18 02:10:21;;;;;;;25.00;6.85;;;;;;;;;;5908794;28;20146;-81
2023/07/18 02:13:12;;;;;;;32.95;6.60;;;;;;;;;;5906992;28;20143;-81
2023/07/18 02:16:03;;;;;;;43.45;5.70;;;;;;;;;;5907120;28;20232;-80
2023/07/18 02:18:54;;;;;;;37.20;5.90;;;;;;;;;;5908513;28;20059;-83
2023/07/18 02:21:44;;;;;;;14.15;6.38;;;;;;;;;;5908325;28;20049;-81
2023/07/18 02:24:35;;;;;;;13.20;8.65;;;;;;;;;;5908191;28;20048;-81
2023/07/18 02:27:26;;;;;;;14.32;8.07;;;;;;;;;;5908142;28;20079;-81
2023/07/18 02:30:17;;;;;;;11.15;8.00;;;;;;;;;;5907858;28;20407;-80
2023/07/18 02:33:08;;;;;;;18.50;8.40;;;;;;;;;;5907854;28;20135;-82
2023/07/18 02:35:59;;;;;;;21.02;7.30;;;;;;;;;;5908362;28;20067;-82
2023/07/18 02:38:49;;;;;;;12.13;7.00;;;;;;;;;;5908058;28;20048;-80
2023/07/18 02:41:40;;;;;;;9.27;5.85;;;;;;;;;;5906318;28;20494;-79
2023/07/18 02:44:31;;;;;;;7.90;5.55;;;;;;;;;;5907562;28;20508;-80
2023/07/18 02:47:22;;;;;;;16.35;5.85;;;;;;;;;;5906395;28;20053;-80
2023/07/18 02:50:12;;;;;;;9.90;5.25;;;;;;;;;;5907032;28;20125;-80
2023/07/18 02:53:03;;;;;;;11.18;4.82;;;;;;;;;;5907809;28;20367;-80
2023/07/18 02:55:54;;;;;;;9.70;5.28;;;;;;;;;;5907657;28;20044;-79
2023/07/18 02:58:45;;;;;;;10.63;4.70;;;;;;;;;;5907468;28;20502;-83
2023/07/18 03:01:35;;;;;;;11.07;4.40;;;;;;;;;;5907381;28;20048;-81
2023/07/18 03:04:26;;;;;;;9.40;4.15;;;;;;;;;;5907046;28;20041;-80
2023/07/18 03:07:17;;;;;;;11.20;4.25;;;;;;;;;;5907229;28;20147;-80
2023/07/18 03:10:09;;;;;;;8.70;3.60;;;;;;;;;;5907396;28;20075;-79
2023/07/18 03:13:00;;;;;;;5.82;3.10;;;;;;;;;;5907583;28;20060;-78
2023/07/18 03:15:51;;;;;;;6.30;3.30;;;;;;;;;;5905721;28;20052;-80
2023/07/18 03:18:42;;;;;;;3.88;2.58;;;;;;;;;;5906446;28;20059;-83
2023/07/18 03:21:33;;;;;;;8.20;2.95;;;;;;;;;;5906521;28;20133;-80
2023/07/18 03:24:24;;;;;;;11.38;3.40;;;;;;;;;;5906992;28;20127;-79
2023/07/18 03:27:15;;;;;;;4.10;2.45;;;;;;;;;;5905708;28;20052;-80
2023/07/18 03:30:10;;;;;;;8.80;2.97;;;;;;;;;;5906805;28;20052;-81
2023/07/18 03:33:01;;;;;;;5.85;2.60;;;;;;;;;;5906961;28;20056;-80
2023/07/18 03:35:52;;;;;;;6.40;2.90;;;;;;;;;;5906873;28;20063;-80
2023/07/18 03:38:42;;;;;;;5.93;2.67;;;;;;;;;;5906471;28;20045;-80
2023/07/18 03:41:33;;;;;;;4.72;2.90;;;;;;;;;;5906652;28;20047;-80
2023/07/18 03:44:24;;;;;;;6.85;2.55;;;;;;;;;;5906318;28;20050;-80
2023/07/18 03:47:15;;;;;;;14.25;2.67;;;;;;;;;;5904938;28;20044;-80
2023/07/18 03:50:13;;;;;;;5.47;2.50;;;;;;;;;;5904539;28;20048;-79
2023/07/18 03:53:04;;;;;;;6.22;2.83;;;;;;;;;;5906623;28;20139;-81
2023/07/18 03:56:03;;;;;;;7.38;3.13;;;;;;;;;;5906531;28;20072;-80
2023/07/18 03:58:56;;;;;;;11.38;2.95;;;;;;;;;;5904907;28;20049;-80
2023/07/18 04:01:47;;;;;;;8.98;2.83;;;;;;;;;;5905767;28;20387;-79
2023/07/18 04:04:37;;;;;;;9.10;2.30;;;;;;;;;;5904803;28;20061;-80
2023/07/18 04:07:28;;;;;;;6.30;2.90;;;;;;;;;;5905975;28;20391;-80
2023/07/18 04:10:19;;;;;;;7.05;2.75;;;;;;;;;;5904545;28;20099;-80
2023/07/18 04:13:10;;;;;;;6.40;2.78;;;;;;;;;;5906162;28;20516;-79
2023/07/18 04:16:01;;;;;;;5.03;2.63;;;;;;;;;;5906008;28;20047;-79
2023/07/18 04:18:52;;;;;;;7.53;2.47;;;;;;;;;;5906094;28;20048;-80
2023/07/18 04:21:43;;;;;;;8.02;2.88;;;;;;;;;;5905643;28;20052;-80
2023/07/18 04:24:34;;;;;;;10.05;2.72;;;;;;;;;;5905586;28;20056;-79
2023/07/18 04:27:27;;;;;;;5.53;3.10;;;;;;;;;;5903916;28;20418;-79
2023/07/18 04:30:18;;;;;;;6.82;2.72;;;;;;;;;;5905710;28;20056;-81
2023/07/18 04:33:12;;;;;;;5.13;2.83;;;;;;;;;;5905560;28;20048;-81
2023/07/18 04:36:07;;;;;;;3.95;2.88;;;;;;;;;;5905882;28;20082;-80
2023/07/18 04:38:58;;;;;;;7.60;3.63;;;;;;;;;;5906567;28;20052;-80
2023/07/18 04:41:49;;;;;;;6.70;3.15;;;;;;;;;;5905524;28;20494;-80
2023/07/18 04:44:45;;;;;;;10.07;3.40;;;;;;;;;;5904237;28;20071;-81
2023/07/18 04:47:36;;;;;;;7.00;3.85;;;;;;;;;;5905675;28;20055;-81
2023/07/18 04:50:27;;;;;;;13.10;3.85;;;;;;;;;;5905285;28;20049;-80
2023/07/18 04:53:19;;;;;;;6.05;3.08;;;;;;;;;;5904126;28;20052;-79
2023/07/18 04:56:10;;;;;;;12.27;3.20;;;;;;;;;;5904978;28;20056;-81
2023/07/18 04:59:01;;;;;;;15.63;2.90;;;;;;;;;;5905309;28;20045;-79
2023/07/18 05:01:55;;;;;;;15.50;3.92;;;;;;;;;;5905873;28;20135;-79
2023/07/18 05:04:46;;;;;;;9.77;2.97;;;;;;;;;;5905499;28;20040;-80
2023/07/18 05:07:38;;;;;;;10.07;3.58;;;;;;;;;;5905076;28;20125;-79
2023/07/18 05:10:29;;;;;;;7.10;3.47;;;;;;;;;;5905126;28;20631;-81
2023/07/18 05:13:20;;;;;;;8.05;2.65;;;;;;;;;;5909640;28;20063;-81
2023/07/18 05:16:10;;;;;;;5.50;2.38;;;;;;;;;;5909559;28;20052;-80
2023/07/18 05:19:01;;;;;;;6.70;3.30;;;;;;;;;;5909774;28;20076;-81
2023/07/18 05:21:52;;;;;;;7.60;2.88;;;;;;;;;;5909687;28;20471;-80
2023/07/18 05:24:43;;;;;;;7.55;2.35;;;;;;;;;;5909120;28;20051;-81
2023/07/18 05:27:34;;;;;;;10.57;2.58;;;;;;;;;;5909149;28;20048;-81
2023/07/18 05:30:26;;;;;;;5.75;2.20;;;;;;;;;;5909768;28;20048;-80
2023/07/18 05:33:16;;;;;;;5.30;2.55;;;;;;;;;;5908970;28;20051;-83
2023/07/18 05:36:07;;;;;;;5.15;1.98;;;;;;;;;;5909407;28;20879;-80
2023/07/18 05:38:58;;;;;;;3.90;1.90;;;;;;;;;;5909912;28;20520;-81
2023/07/18 05:41:49;;;;;;;9.70;2.30;;;;;;;;;;5909084;28;20044;-81
2023/07/18 05:44:39;;;;;;;6.55;2.15;;;;;;;;;;5908929;28;20136;-81
2023/07/18 05:47:30;;;;;;;3.50;2.20;;;;;;;;;;5909027;28;20044;-82
2023/07/18 05:50:21;;;;;;;3.15;1.73;;;;;;;;;;5908948;28;20097;-81
2023/07/18 05:53:12;;;;;;;8.85;2.30;;;;;;;;;;5907249;28;20135;-82
2023/07/18 05:56:04;;;;;;;4.97;2.10;;;;;;;;;;5908576;28;20155;-81
2023/07/18 05:58:55;;;;;;;5.90;1.80;;;;;;;;;;5909236;28;20053;-81
2023/07/18 06:01:46;;;;;;;5.82;1.63;;;;;;;;;;5908226;28;20063;-80
2023/07/18 06:04:37;;;;;;;17.20;1.98;;;;;;;;;;5908558;28;20095;-80
2023/07/18 06:07:28;;;;;;;3.10;1.70;;;;;;;;;;5908683;28;20067;-81
2023/07/18 06:10:19;;;;;;;5.28;1.73;;;;;;;;;;5908408;28;20052;-81
2023/07/18 06:13:10;;;;;;;5.07;1.70;;;;;;;;;;5908402;28;20384;-81
2023/07/18 06:16:01;;;;;;;2.88;1.60;;;;;;;;;;5908450;28;20048;-80
2023/07/18 06:18:52;;;;;;;5.97;1.70;;;;;;;;;;5908708;28;20044;-80
2023/07/18 06:21:43;;;;;;;12.43;1.67;;;;;;;;;;5908233;28;20495;-81
2023/07/18 06:24:33;;;;;;;4.75;1.65;;;;;;;;;;5907442;28;20487;-81
2023/07/18 06:27:26;;;;;;;5.75;1.75;;;;;;;;;;5908419;28;20478;-80
2023/07/18 06:30:17;;;;;;;5.68;1.88;;;;;;;;;;5907755;28;20064;-82
2023/07/18 06:33:08;;;;;;;7.80;1.88;;;;;;;;;;5907834;28;20071;-81
2023/07/18 06:35:59;;;;;;;7.80;1.70;;;;;;;;;;5908026;28;20498;-80
2023/07/18 06:38:50;;;;;;;8.40;1.60;;;;;;;;;;5908045;28;20044;-81
2023/07/18 06:41:41;;;;;;;3.30;1.63;;;;;;;;;;5907860;28;20782;-80
2023/07/18 06:44:32;;;;;;;4.28;1.40;;;;;;;;;;5907932;28;20044;-79
2023/07/18 06:47:23;;;;;;;6.03;1.50;;;;;;;;;;5907743;28;20048;-81
2023/07/18 06:50:13;;;;;;;3.38;1.23;;;;;;;;;;5907468;28;20048;-80
2023/07/18 06:53:04;;;;;;;4.13;1.67;;;;;;;;;;5907532;28;20053;-82
2023/07/18 06:55:55;;;;;;;4.97;1.80;;;;;;;;;;5907717;28;20426;-81
2023/07/18 06:58:46;;;;;;;13.88;2.17;;;;;;;;;;5907099;28;20094;-82
2023/07/18 07:01:36;;;;;;;7.75;1.45;;;;;;;;;;5907326;28;20680;-82
2023/07/18 07:04:27;;;;;;;3.35;1.30;;;;;;;;;;5907234;28;20044;-81
2023/07/18 07:07:18;;;;;;;6.78;1.20;;;;;;;;;;5907426;28;20162;-80
2023/07/18 07:10:09;;;;;;;1.73;1.05;;;;;;;;;;5906578;28;20068;-81
2023/07/18 07:13:00;;;;;;;4.05;1.40;;;;;;;;;;5899090;28;20514;-81
2023/07/18 07:15:51;;;;;;;4.88;2.80;;;;;;;;;;5907129;28;20045;-82
2023/07/18 07:18:42;;;;;;;6.18;1.55;;;;;;;;;;5912651;28;20044;-81
2023/07/18 07:21:32;;;;;;;3.17;1.38;;;;;;;;;;5906501;28;20045;-80
2023/07/18 07:24:23;;;;;;;3.28;1.90;;;;;;;;;;5906347;28;20632;-81
2023/07/18 07:27:14;;;;;;;3.03;1.15;;;;;;;;;;5906586;28;20053;-82
2023/07/18 07:30:06;;;;;;;3.95;1.67;;;;;;;;;;5907092;28;20052;-81
2023/07/18 07:32:57;;;;;;;3.47;1.58;;;;;;;;;;5906368;28;20391;-82
2023/07/18 07:35:48;;;;;;;2.45;1.20;;;;;;;;;;5905709;28;20045;-82
2023/07/18 07:38:38;;;;;;;6.53;1.23;;;;;;;;;;5906300;28;20044;-82
2023/07/18 07:41:29;;;;;;;6.00;1.60;;;;;;;;;;5906474;28;20044;-82
2023/07/18 07:44:20;;;;;;;3.92;1.40;;;;;;;;;;5905859;28;20063;-82
2023/07/18 07:47:11;;;;;;;4.18;1.00;;;;;;;;;;5906501;28;20055;-83
2023/07/18 07:50:02;;;;;;;3.50;1.30;;;;;;;;;;5906480;28;20055;-82
2023/07/18 07:52:53;;;;;;;3.42;1.30;;;;;;;;;;5906350;28;20044;-82
2023/07/18 07:55:44;;;;;;;4.38;1.33;;;;;;;;;;5906156;28;20040;-82
2023/07/18 07:58:36;;;;;;;2.72;1.05;;;;;;;;;;5906082;28;20041;-81
2023/07/18 08:01:27;;;;;;;2.22;1.30;;;;;;;;;;5906362;28;20406;-81
2023/07/18 08:04:19;;;;;;;2.10;1.10;;;;;;;;;;5905954;28;20067;-82
2023/07/18 08:07:10;;;;;;;3.45;1.30;;;;;;;;;;5906014;28;20059;-81
2023/07/18 08:10:02;;;;;;;3.03;1.52;;;;;;;;;;5906315;28;20045;-81
2023/07/18 08:12:53;;;;;;;8.68;1.55;;;;;;;;;;5906186;28;20447;-81
2023/07/18 08:15:44;;;;;;;3.40;1.15;;;;;;;;;;5905744;28;20507;-79
2023/07/18 08:18:36;;;;;;;4.35;1.20;;;;;;;;;;5906007;28;20040;-79
2023/07/18 08:21:27;;;;;;;1.77;1.10;;;;;;;;;;5905525;28;20063;-80
2023/07/18 08:24:17;;;;;;;1.98;1.10;;;;;;;;;;5905926;28;20065;-80
2023/07/18 08:27:08;;;;;;;3.30;1.10;;;;;;;;;;5906011;28;20049;-79
2023/07/18 08:30:01;;;;;;;3.90;0.98;;;;;;;;;;5905879;28;20044;-80
2023/07/18 08:32:52;;;;;;;2.53;1.20;;;;;;;;;;5906036;28;20135;-81
2023/07/18 08:35:43;;;;;;;1.75;1.08;;;;;;;;;;5905747;28;20048;-79
2023/07/18 08:38:34;;;;;;;1.83;1.10;;;;;;;;;;5905775;28;20040;-78
2023/07/18 08:41:25;;;;;;;5.18;1.25;;;;;;;;;;5905712;28;20059;-80
2023/07/18 08:44:17;;;;;;;4.85;1.27;;;;;;;;;;5904326;28;20045;-79
2023/07/18 08:47:12;;;;;;;3.50;1.20;;;;;;;;;;5906520;28;20135;-79
2023/07/18 08:50:03;;;;;;;1.95;0.85;;;;;;;;;;5910204;28;20151;-81
2023/07/18 08:52:54;;;;;;;3.25;1.20;;;;;;;;;;5910281;28;20086;-81
2023/07/18 08:55:46;;;;;;;2.47;1.10;;;;;;;;;;5909890;28;20510;-79
2023/07/18 08:58:37;;;;;;;3.65;0.95;;;;;;;;;;5908139;28;20040;-81
2023/07/18 09:01:28;;;;;;;2.65;1.10;;;;;;;;;;5909829;28;20811;-80
2023/07/18 09:04:19;;;;;;;1.60;1.00;;;;;;;;;;5908417;28;20053;-81
2023/07/18 09:07:10;;;;;;;2.40;1.05;;;;;;;;;;5909525;28;20530;-79
2023/07/18 09:10:02;;;;;;;1.80;1.00;;;;;;;;;;5910472;28;20052;-82
2023/07/18 09:12:58;;;;;;;1.75;0.80;;;;;;;;;;5909885;28;20055;-80
2023/07/18 09:15:49;;;;;;;1.42;0.98;;;;;;;;;;5907976;28;20044;-80
2023/07/18 09:18:48;;;;;;;2.47;1.15;;;;;;;;;;5909342;28;20418;-82
2023/07/18 09:21:40;;;;;;;3.05;1.10;;;;;;;;;;5908158;28;20102;-81
2023/07/18 09:24:32;;;;;;;1.98;1.35;;;;;;;;;;5909373;28;20149;-81
2023/07/18 09:27:23;;;;;;;1.65;1.15;;;;;;;;;;5909264;28;20052;-78
2023/07/18 09:30:15;;;;;;;2.70;1.08;;;;;;;;;;5908977;28;20052;-80
2023/07/18 09:33:06;;;;;;;1.83;1.08;;;;;;;;;;5909316;28;20053;-80
2023/07/18 09:35:58;;;;;;;3.30;1.13;;;;;;;;;;5908357;28;20044;-79
2023/07/18 09:38:50;;;;;;;0.93;0.55;;;;;;;;;;5909201;28;20044;-77
2023/07/18 09:41:41;;;;;;;1.88;1.00;;;;;;;;;;5908795;28;20048;-81
2023/07/18 09:44:33;;;;;;;1.85;0.88;;;;;;;;;;5907296;28;20498;-81
2023/07/18 09:47:27;;;;;;;3.25;1.10;;;;;;;;;;5908792;28;20041;-80
2023/07/18 09:50:23;;;;;;;2.65;1.15;;;;;;;;;;5908547;28;20492;-79
2023/07/18 09:53:16;;;;;;;2.58;1.00;;;;;;;;;;5907268;28;20044;-79
2023/07/18 09:56:08;;;;;;;2.42;0.82;;;;;;;;;;5907099;28;20044;-79
2023/07/18 09:59:05;;;;;;;3.88;1.13;;;;;;;;;;5906358;28;20052;-82
2023/07/18 10:01:56;;;;;;;1.63;0.68;;;;;;;;;;5908680;28;20055;-78
2023/07/18 10:04:48;;;;;;;2.72;1.25;;;;;;;;;;5908167;28;20036;-79
2023/07/18 10:07:40;;;;;;;2.60;1.00;;;;;;;;;;5908179;28;20048;-78
2023/07/18 10:10:31;;;;;;;4.30;1.30;;;;;;;;;;5906723;28;20040;-78
2023/07/18 10:13:22;;;;;;;2.08;1.38;;;;;;;;;;5908465;28;20048;-79
2023/07/18 10:16:16;;;;;;;7.75;1.20;;;;;;;;;;5908386;28;20060;-79
2023/07/18 10:19:20;;;;;;;1.77;0.95;;;;;;;;;;5907981;28;20135;-80
2023/07/18 10:22:11;;;;;;;3.83;0.82;;;;;;;;;;5906611;28;20071;-78
2023/07/18 10:25:07;;;;;;;3.33;1.13;;;;;;;;;;5908076;28;20049;-80
2023/07/18 10:27:59;;;;;;;3.55;1.02;;;;;;;;;;5906895;28;20055;-80
2023/07/18 10:30:50;;;;;;;2.10;1.05;;;;;;;;;;5907871;28;20147;-81
2023/07/18 10:34:11;;;;;;;3.30;1.48;;;;;;;;;;5907549;28;20055;-79
2023/07/18 10:37:07;;;;;;;3.72;1.20;;;;;;;;;;5905701;28;20075;-80
2023/07/18 10:39:59;;;;;;;2.53;1.15;;;;;;;;;;5908113;28;20082;-80
2023/07/18 10:42:50;;;;;;;3.13;1.33;;;;;;;;;;5907741;28;20051;-80
2023/07/18 10:45:42;;;;;;;2.15;0.90;;;;;;;;;;5907594;28;20036;-79
2023/07/18 10:48:33;;;;;;;2.38;1.00;;;;;;;;;;5906002;28;20044;-78
2023/07/18 10:51:24;;;;;;;3.53;1.30;;;;;;;;;;5907523;28;20051;-79
2023/07/18 10:54:15;;;;;;;1.60;0.90;;;;;;;;;;5907392;28;20059;-79
2023/07/18 10:57:09;;;;;;;2.30;1.00;;;;;;;;;;5905259;28;20586;-78
2023/07/18 11:00:05;;;;;;;1.50;0.90;;;;;;;;;;5907550;28;20055;-80
2023/07/18 11:02:55;;;;;;;1.90;1.13;;;;;;;;;;5906014;28;20407;-78
2023/07/18 11:05:50;;;;;;;5.07;1.10;;;;;;;;;;5907070;28;20048;-79
2023/07/18 11:08:47;;;;;;;6.28;1.10;;;;;;;;;;5906593;28;20048;-80
2023/07/18 11:11:38;;;;;;;1.58;0.88;;;;;;;;;;5906387;28;20552;-80
2023/07/18 11:14:43;;;;;;;6.28;1.10;;;;;;;;;;5906614;28;20045;-80
2023/07/18 11:17:35;;;;;;;1.95;0.88;;;;;;;;;;5905068;28;20044;-79
2023/07/18 11:20:29;;;;;;;2.78;1.27;;;;;;;;;;5896166;28;20571;-79
2023/07/18 11:23:21;;;;;;;2.95;0.90;;;;;;;;;;5906722;28;20423;-78
2023/07/18 11:26:15;;;;;;;1.80;0.90;;;;;;;;;;5904366;28;20048;-79
2023/07/18 11:29:06;;;;;;;1.70;0.93;;;;;;;;;;5906819;28;20059;-82
2023/07/18 11:32:00;;;;;;;4.63;1.00;;;;;;;;;;5906960;28;20052;-82
2023/07/18 11:35:00;;;;;;;4.00;0.98;;;;;;;;;;5906594;28;20102;-79
2023/07/18 11:37:52;;;;;;;1.77;0.85;;;;;;;;;;5906569;28;20118;-79
2023/07/18 11:40:44;;;;;;;2.25;0.93;;;;;;;;;;5904545;28;20049;-80
2023/07/18 11:43:37;;;;;;;3.42;0.90;;;;;;;;;;5905938;28;20044;-78
2023/07/18 11:46:40;;;;;;;2.83;1.00;;;;;;;;;;5906072;28;20051;-79
2023/07/18 11:49:35;;;;;;;0.95;0.60;;;;;;;;;;5904570;28;20053;-79
2023/07/18 11:52:27;;;;;;;1.70;0.90;;;;;;;;;;5904424;28;20050;-79
2023/07/18 11:55:20;;;;;;;2.78;1.08;;;;;;;;;;5904727;28;20045;-79
2023/07/18 11:58:11;;;;;;;2.55;0.98;;;;;;;;;;5888445;28;20511;-78
2023/07/18 12:01:02;;;;;;;1.30;0.73;;;;;;;;;;5906137;28;20048;-79
2023/07/18 12:03:53;;;;;;;1.25;0.80;;;;;;;;;;5906715;28;20041;-79
2023/07/18 12:06:46;;;;;;;2.15;1.00;;;;;;;;;;5904758;28;20048;-79
2023/07/18 12:09:36;;;;;;;2.30;0.88;;;;;;;;;;5904532;28;20391;-79
2023/07/18 12:12:28;;;;;;;3.90;1.17;;;;;;;;;;5905851;28;20048;-79
2023/07/18 12:15:19;;;;;;;1.52;0.80;;;;;;;;;;5905795;28;20063;-78
2023/07/18 12:18:11;;;;;;;0.98;0.80;;;;;;;;;;5905822;28;20062;-78
2023/07/18 12:21:02;;;;;;;3.25;1.02;;;;;;;;;;5905241;28;20060;-80
2023/07/18 12:23:53;;;;;;;1.98;0.80;;;;;;;;;;5906162;28;20049;-79
2023/07/18 12:26:45;;;;;;;3.90;0.65;;;;;;;;;;5905581;28;20039;-80
2023/07/18 12:29:36;;;;;;;2.00;0.90;;;;;;;;;;5905413;28;20510;-79
2023/07/18 12:32:27;;;;;;;1.90;1.13;;;;;;;;;;5905393;28;20411;-79
2023/07/18 12:35:21;;;;;;;1.35;0.88;;;;;;;;;;5905095;28;20055;-79
2023/07/18 12:38:12;;;;;;;1.23;0.70;;;;;;;;;;5905504;28;20055;-80
2023/07/18 12:41:03;;;;;;;6.85;1.08;;;;;;;;;;5901593;28;20048;-79
2023/07/18 12:43:54;;;;;;;2.40;1.08;;;;;;;;;;5918355;28;20372;-80
2023/07/18 12:46:46;;;;;;;3.10;1.30;;;;;;;;;;5903908;28;20412;-78
2023/07/18 12:49:37;;;;;;;2.22;1.00;;;;;;;;;;5904433;28;21008;-77
2023/07/18 12:52:30;;;;;;;1.80;1.00;;;;;;;;;;5904328;28;20036;-78
2023/07/18 12:55:21;;;;;;;3.20;1.05;;;;;;;;;;5903808;28;20537;-79
2023/07/18 12:58:12;;;;;;;1.65;1.00;;;;;;;;;;5904110;28;20052;-79
2023/07/18 13:01:03;;;;;;;3.03;1.00;;;;;;;;;;5904789;28;20052;-79
2023/07/18 13:03:53;;;;;;;3.30;1.10;;;;;;;;;;5903275;28;20052;-79
2023/07/18 13:06:44;;;;;;;1.15;0.80;;;;;;;;;;5903901;28;20051;-78
2023/07/18 13:09:36;;;;;;;2.28;1.08;;;;;;;;;;5899098;28;20520;-79
2023/07/18 13:12:28;;;;;;;1.05;0.80;;;;;;;;;;5903257;28;20048;-78
2023/07/18 13:15:19;;;;;;;1.55;0.80;;;;;;;;;;5904528;28;20189;-77
2023/07/18 13:18:12;;;;;;;2.20;0.90;;;;;;;;;;5904723;28;20116;-79
2023/07/18 13:21:03;;;;;;;3.72;0.80;;;;;;;;;;5903357;28;20049;-79
2023/07/18 13:23:54;;;;;;;3.15;1.10;;;;;;;;;;5903146;28;20048;-81
2023/07/18 13:26:45;;;;;;;1.42;0.85;;;;;;;;;;5904397;28;20078;-79
2023/07/18 13:29:36;;;;;;;1.55;1.00;;;;;;;;;;5903828;28;20601;-82
2023/07/18 13:32:27;;;;;;;1.55;0.80;;;;;;;;;;5902053;28;20051;-80
2023/07/18 13:35:18;;;;;;;1.15;0.80;;;;;;;;;;5907865;28;20048;-80
2023/07/18 13:38:08;;;;;;;1.50;0.70;;;;;;;;;;5908312;28;20206;-81
2023/07/18 13:41:02;;;;;;;2.63;0.65;;;;;;;;;;5908298;28;20055;-80
2023/07/18 13:43:54;;;;;;;3.67;0.93;;;;;;;;;;5908705;28;20859;-79
2023/07/18 13:46:44;;;;;;;1.02;0.75;;;;;;;;;;5906655;28;20050;-79
2023/07/18 13:49:36;;;;;;;1.00;0.65;;;;;;;;;;5908147;28;20043;-79
2023/07/18 13:52:40;;;;;;;3.70;1.00;;;;;;;;;;5907902;28;20050;-79
2023/07/18 13:55:31;;;;;;;1.15;0.90;;;;;;;;;;5908042;28;20041;-80
2023/07/18 13:58:22;;;;;;;1.30;0.80;;;;;;;;;;5907950;28;20051;-78
2023/07/18 14:01:13;;;;;;;1.60;1.00;;;;;;;;;;5906957;28;20049;-79
2023/07/18 14:04:04;;;;;;;3.05;1.05;;;;;;;;;;5896992;28;20461;-79
2023/07/18 14:06:55;;;;;;;4.20;1.33;;;;;;;;;;5889903;28;20120;-79
2023/07/18 14:09:46;;;;;;;2.22;1.13;;;;;;;;;;5891999;28;20045;-77
2023/07/18 14:12:37;;;;;;;2.70;1.20;;;;;;;;;;5911480;28;20044;-79
2023/07/18 14:15:28;;;;;;;2.00;0.88;;;;;;;;;;5907724;28;20487;-79
2023/07/18 14:18:19;;;;;;;1.50;0.90;;;;;;;;;;5907598;28;20537;-80
2023/07/18 14:21:10;;;;;;;2.65;1.45;;;;;;;;;;5907305;28;20048;-78
2023/07/18 14:24:01;;;;;;;2.97;1.08;;;;;;;;;;5910074;28;20049;-79
2023/07/18 14:26:52;;;;;;;1.52;0.80;;;;;;;;;;5931288;28;20086;-80
2023/07/18 14:29:42;;;;;;;1.80;0.90;;;;;;;;;;5923101;28;20063;-80
2023/07/18 14:32:33;;;;;;;3.53;1.15;;;;;;;;;;5906287;28;20189;-77
2023/07/18 14:35:24;;;;;;;1.38;0.80;;;;;;;;;;5905887;28;20407;-79
2023/07/18 14:38:15;;;;;;;9.13;1.75;;;;;;;;;;5906675;28;20056;-79
2023/07/18 14:41:06;;;;;;;11.93;2.05;;;;;;;;;;5906983;28;20057;-78
2023/07/18 14:43:57;;;;;;;0.93;0.68;;;;;;;;;;5906052;28;20060;-78
2023/07/18 14:46:49;;;;;;;1.35;0.85;;;;;;;;;;5906571;28;20098;-79
2023/07/18 14:49:40;;;;;;;1.77;0.80;;;;;;;;;;5906074;28;20044;-77
2023/07/18 14:52:31;;;;;;;2.63;1.00;;;;;;;;;;5905219;28;20391;-77
2023/07/18 14:55:22;;;;;;;1.73;0.80;;;;;;;;;;5906414;28;20133;-77
2023/07/18 14:58:13;;;;;;;2.35;0.98;;;;;;;;;;5918578;28;20051;-78
2023/07/18 15:01:06;;;;;;;3.80;0.90;;;;;;;;;;5910581;28;20615;-79
2023/07/18 15:03:57;;;;;;;3.65;1.02;;;;;;;;;;5906842;28;20072;-80
2023/07/18 15:06:48;;;;;;;2.45;1.00;;;;;;;;;;5906101;28;20067;-79
2023/07/18 15:09:38;;;;;;;2.78;1.17;;;;;;;;;;5905195;28;20046;-79
2023/07/18 15:12:29;;;;;;;4.63;1.08;;;;;;;;;;5902223;28;20179;-79
2023/07/18 15:15:20;;;;;;;5.13;1.00;;;;;;;;;;5905033;28;20048;-79
2023/07/18 15:18:11;;;;;;;2.97;1.25;;;;;;;;;;5904183;28;20053;-79
2023/07/18 15:21:07;;;;;;;2.40;1.08;;;;;;;;;;5903223;28;20137;-78
2023/07/18 15:23:58;;;;;;;2.13;0.77;;;;;;;;;;5905544;28;20059;-80
2023/07/18 15:26:48;;;;;;;1.27;0.90;;;;;;;;;;5905584;28;20064;-79
2023/07/18 15:29:41;;;;;;;2.15;1.10;;;;;;;;;;5904718;28;20392;-79
2023/07/18 15:32:31;;;;;;;2.35;0.80;;;;;;;;;;5905186;28;20044;-79
2023/07/18 15:35:23;;;;;;;2.75;1.08;;;;;;;;;;5896397;28;20119;-79
2023/07/18 15:38:14;;;;;;;2.42;0.70;;;;;;;;;;5890564;28;20037;-79
2023/07/18 15:41:05;;;;;;;2.05;0.88;;;;;;;;;;5881728;28;20044;-78
2023/07/18 15:43:56;;;;;;;2.35;0.75;;;;;;;;;;5883381;28;20419;-80
2023/07/18 15:46:47;;;;;;;1.42;0.88;;;;;;;;;;5883403;28;20389;-79
2023/07/18 15:49:38;;;;;;;2.55;1.30;;;;;;;;;;5882807;28;20498;-78
2023/07/18 15:52:29;;;;;;;4.50;1.20;;;;;;;;;;5882822;28;20044;-78
2023/07/18 15:55:21;;;;;;;3.65;1.25;;;;;;;;;;5882234;28;20403;-79
2023/07/18 15:58:11;;;;;;;8.32;1.80;;;;;;;;;;5882389;28;20098;-80
2023/07/18 16:01:03;;;;;;;1.88;1.10;;;;;;;;;;5882824;28;20206;-79
2023/07/18 16:03:55;;;;;;;3.58;1.20;;;;;;;;;;5882970;28;20045;-79
2023/07/18 16:06:46;;;;;;;2.67;1.10;;;;;;;;;;5882645;28;20124;-78
2023/07/18 16:09:51;;;;;;;2.83;0.98;;;;;;;;;;5882283;28;20056;-78
2023/07/18 16:12:42;;;;;;;2.35;1.10;;;;;;;;;;5881301;28;20060;-79
2023/07/18 16:15:33;;;;;;;2.75;1.10;;;;;;;;;;5882655;28;20041;-78
2023/07/18 16:18:23;;;;;;;2.58;0.82;;;;;;;;;;5882268;28;20381;-79
2023/07/18 16:21:14;;;;;;;2.33;1.20;;;;;;;;;;5883972;28;20044;-79
2023/07/18 16:24:06;;;;;;;2.13;1.17;;;;;;;;;;5900937;28;20049;-77
2023/07/18 16:27:00;;;;;;;1.45;0.93;;;;;;;;;;5905588;28;20052;-77
2023/07/18 16:29:51;;;;;;;5.38;0.90;;;;;;;;;;5904089;28;20158;-78
2023/07/18 16:32:42;;;;;;;2.85;1.27;;;;;;;;;;5904875;28;20037;-79
2023/07/18 16:35:33;;;;;;;2.00;1.13;;;;;;;;;;5903560;28;20056;-76
2023/07/18 16:38:24;;;;;;;7.75;1.00;;;;;;;;;;5904771;28;20044;-77
2023/07/18 16:41:15;;;;;;;2.30;1.13;;;;;;;;;;5904892;28;20052;-77
2023/07/18 16:44:05;;;;;;;1.48;0.63;;;;;;;;;;5904978;28;20812;-77
2023/07/18 16:46:56;;;;;;;4.78;1.30;;;;;;;;;;5904756;28;20419;-77
2023/07/18 16:49:48;;;;;;;1.92;1.15;;;;;;;;;;5904666;28;20051;-77
2023/07/18 16:52:40;;;;;;;3.13;1.50;;;;;;;;;;5904658;28;20052;-76
2023/07/18 16:55:30;;;;;;;11.68;3.42;;;;;;;;;;5904474;28;20059;-77
2023/07/18 16:58:21;;;;;;;5.78;1.52;;;;;;;;;;5904909;28;20499;-78
2023/07/18 17:01:13;;;;;;;11.32;2.33;;;;;;;;;;5905130;28;20055;-78
2023/07/18 17:04:04;;;;;;;27.48;5.65;;;;;;;;;;5910284;28;20044;-78
2023/07/18 17:06:55;;;;;;;25.80;3.35;;;;;;;;;;5904181;28;20165;-77